sensor_id;sensor_type;location;lat;lon;timestamp;P1;durP1;ratioP1;P2;durP2;ratioP2
39612;SDS011;25303;48.896;13.342;2024-03-02T00:09:16;11.15;;;6.38;;
39612;SDS011;25303;48.896;13.342;2024-03-02T00:19:19;10.02;;;5.43;;
39612;SDS011;25303;48.896;13.342;2024-03-02T00:29:23;195.88;;;14.07;;
39612;SDS011;25303;48.896;13.342;2024-03-02T00:39:27;25.80;;;8.20;;
39612;SDS011;25303;48.896;13.342;2024-03-02T00:49:31;21.73;;;11.52;;
39612;SDS011;25303;48.896;13.342;2024-03-02T00:59:34;106.57;;;10.70;;
39612;SDS011;25303;48.896;13.342;2024-03-02T01:09:39;134.70;;;11.88;;
39612;SDS011;25303;48.896;13.342;2024-03-02T01:19:43;46.88;;;7.85;;
39612;SDS011;25303;48.896;13.342;2024-03-02T01:29:47;84.68;;;8.85;;
39612;SDS011;25303;48.896;13.342;2024-03-02T01:39:50;131.02;;;11.48;;
39612;SDS011;25303;48.896;13.342;2024-03-02T01:49:54;57.10;;;12.63;;
39612;SDS011;25303;48.896;13.342;2024-03-02T01:59:57;406.35;;;19.00;;
39612;SDS011;25303;48.896;13.342;2024-03-02T02:10:02;15.68;;;6.57;;
39612;SDS011;25303;48.896;13.342;2024-03-02T02:20:06;229.00;;;13.23;;
39612;SDS011;25303;48.896;13.342;2024-03-02T02:30:12;21.35;;;8.43;;
39612;SDS011;25303;48.896;13.342;2024-03-02T02:40:16;26.00;;;9.43;;
39612;SDS011;25303;48.896;13.342;2024-03-02T02:50:21;30.25;;;12.50;;
39612;SDS011;25303;48.896;13.342;2024-03-02T03:00:24;20.25;;;8.35;;
39612;SDS011;25303;48.896;13.342;2024-03-02T03:10:29;18.13;;;7.70;;
39612;SDS011;25303;48.896;13.342;2024-03-02T03:20:32;17.52;;;7.05;;
39612;SDS011;25303;48.896;13.342;2024-03-02T03:30:36;19.38;;;8.10;;
39612;SDS011;25303;48.896;13.342;2024-03-02T03:40:40;20.05;;;8.57;;
39612;SDS011;25303;48.896;13.342;2024-03-02T03:50:44;18.25;;;7.70;;
39612;SDS011;25303;48.896;13.342;2024-03-02T04:00:47;26.70;;;10.50;;
39612;SDS011;25303;48.896;13.342;2024-03-02T04:10:52;19.88;;;8.15;;
39612;SDS011;25303;48.896;13.342;2024-03-02T04:20:55;20.27;;;6.72;;
39612;SDS011;25303;48.896;13.342;2024-03-02T04:31:01;24.23;;;8.35;;
39612;SDS011;25303;48.896;13.342;2024-03-02T04:41:04;17.75;;;6.32;;
39612;SDS011;25303;48.896;13.342;2024-03-02T04:51:09;17.58;;;6.70;;
39612;SDS011;25303;48.896;13.342;2024-03-02T05:01:12;17.63;;;6.57;;
39612;SDS011;25303;48.896;13.342;2024-03-02T05:11:19;15.80;;;7.05;;
39612;SDS011;25303;48.896;13.342;2024-03-02T05:21:46;19.27;;;7.15;;
39612;SDS011;25303;48.896;13.342;2024-03-02T05:31:51;18.88;;;7.18;;
39612;SDS011;25303;48.896;13.342;2024-03-02T05:41:54;17.50;;;6.35;;
39612;SDS011;25303;48.896;13.342;2024-03-02T05:51:59;17.85;;;7.15;;
39612;SDS011;25303;48.896;13.342;2024-03-02T06:02:02;16.17;;;6.35;;
39612;SDS011;25303;48.896;13.342;2024-03-02T06:12:07;18.55;;;6.63;;
39612;SDS011;25303;48.896;13.342;2024-03-02T06:22:10;17.48;;;6.70;;
39612;SDS011;25303;48.896;13.342;2024-03-02T06:32:15;19.02;;;7.10;;
39612;SDS011;25303;48.896;13.342;2024-03-02T06:42:17;16.48;;;6.25;;
39612;SDS011;25303;48.896;13.342;2024-03-02T06:52:22;21.60;;;7.78;;
39612;SDS011;25303;48.896;13.342;2024-03-02T07:02:25;18.65;;;7.82;;
39612;SDS011;25303;48.896;13.342;2024-03-02T07:12:30;20.20;;;7.40;;
39612;SDS011;25303;48.896;13.342;2024-03-02T07:22:34;18.83;;;7.07;;
39612;SDS011;25303;48.896;13.342;2024-03-02T07:32:43;16.48;;;6.72;;
39612;SDS011;25303;48.896;13.342;2024-03-02T07:42:47;15.13;;;6.15;;
39612;SDS011;25303;48.896;13.342;2024-03-02T07:52:51;14.35;;;6.03;;
39612;SDS011;25303;48.896;13.342;2024-03-02T08:02:54;19.17;;;7.70;;
39612;SDS011;25303;48.896;13.342;2024-03-02T08:12:59;20.02;;;8.57;;
39612;SDS011;25303;48.896;13.342;2024-03-02T08:23:03;22.33;;;8.80;;
39612;SDS011;25303;48.896;13.342;2024-03-02T08:33:07;14.70;;;6.65;;
39612;SDS011;25303;48.896;13.342;2024-03-02T08:43:10;16.55;;;7.20;;
39612;SDS011;25303;48.896;13.342;2024-03-02T08:53:15;17.60;;;6.85;;
39612;SDS011;25303;48.896;13.342;2024-03-02T09:03:20;27.17;;;11.70;;
39612;SDS011;25303;48.896;13.342;2024-03-02T09:13:24;25.98;;;11.20;;
39612;SDS011;25303;48.896;13.342;2024-03-02T09:23:27;24.60;;;11.23;;
39612;SDS011;25303;48.896;13.342;2024-03-02T09:33:31;26.40;;;10.88;;
39612;SDS011;25303;48.896;13.342;2024-03-02T09:43:35;30.67;;;13.13;;
39612;SDS011;25303;48.896;13.342;2024-03-02T09:53:39;23.58;;;10.80;;
39612;SDS011;25303;48.896;13.342;2024-03-02T10:03:42;22.88;;;10.98;;
39612;SDS011;25303;48.896;13.342;2024-03-02T10:13:53;25.40;;;12.27;;
39612;SDS011;25303;48.896;13.342;2024-03-02T10:24:10;19.30;;;8.77;;
39612;SDS011;25303;48.896;13.342;2024-03-02T10:34:15;28.10;;;13.23;;
39612;SDS011;25303;48.896;13.342;2024-03-02T10:44:18;22.52;;;11.32;;
39612;SDS011;25303;48.896;13.342;2024-03-02T10:54:23;26.00;;;12.80;;
39612;SDS011;25303;48.896;13.342;2024-03-02T11:04:30;19.77;;;11.15;;
39612;SDS011;25303;48.896;13.342;2024-03-02T11:14:36;17.17;;;8.32;;
39612;SDS011;25303;48.896;13.342;2024-03-02T11:24:47;14.75;;;8.45;;
39612;SDS011;25303;48.896;13.342;2024-03-02T11:34:52;21.98;;;9.75;;
39612;SDS011;25303;48.896;13.342;2024-03-02T11:44:55;14.07;;;7.70;;
39612;SDS011;25303;48.896;13.342;2024-03-02T11:55:01;12.45;;;7.15;;
39612;SDS011;25303;48.896;13.342;2024-03-02T12:05:06;9.88;;;5.65;;
39612;SDS011;25303;48.896;13.342;2024-03-02T12:15:13;13.50;;;6.68;;
39612;SDS011;25303;48.896;13.342;2024-03-02T12:25:16;12.52;;;7.00;;
39612;SDS011;25303;48.896;13.342;2024-03-02T12:35:23;12.23;;;7.03;;
39612;SDS011;25303;48.896;13.342;2024-03-02T12:45:27;11.05;;;6.60;;
39612;SDS011;25303;48.896;13.342;2024-03-02T12:55:32;10.50;;;5.28;;
39612;SDS011;25303;48.896;13.342;2024-03-02T13:05:35;9.82;;;6.13;;
39612;SDS011;25303;48.896;13.342;2024-03-02T13:15:39;8.88;;;5.10;;
39612;SDS011;25303;48.896;13.342;2024-03-02T13:25:44;9.43;;;5.55;;
39612;SDS011;25303;48.896;13.342;2024-03-02T13:35:50;8.43;;;4.57;;
39612;SDS011;25303;48.896;13.342;2024-03-02T13:45:53;9.15;;;5.00;;
39612;SDS011;25303;48.896;13.342;2024-03-02T13:55:58;7.35;;;4.75;;
39612;SDS011;25303;48.896;13.342;2024-03-02T14:06:01;9.82;;;4.93;;
39612;SDS011;25303;48.896;13.342;2024-03-02T14:16:06;6.85;;;4.03;;
39612;SDS011;25303;48.896;13.342;2024-03-02T14:26:10;7.00;;;3.95;;
39612;SDS011;25303;48.896;13.342;2024-03-02T14:36:15;8.85;;;4.70;;
39612;SDS011;25303;48.896;13.342;2024-03-02T14:46:18;9.60;;;5.15;;
39612;SDS011;25303;48.896;13.342;2024-03-02T14:56:23;11.40;;;6.30;;
39612;SDS011;25303;48.896;13.342;2024-03-02T15:06:27;12.07;;;6.40;;
39612;SDS011;25303;48.896;13.342;2024-03-02T15:16:32;9.40;;;5.43;;
39612;SDS011;25303;48.896;13.342;2024-03-02T15:26:35;13.45;;;7.55;;
39612;SDS011;25303;48.896;13.342;2024-03-02T15:36:39;11.85;;;6.38;;
39612;SDS011;25303;48.896;13.342;2024-03-02T15:46:43;10.95;;;5.50;;
39612;SDS011;25303;48.896;13.342;2024-03-02T15:56:47;14.45;;;7.60;;
39612;SDS011;25303;48.896;13.342;2024-03-02T16:06:50;11.80;;;6.70;;
39612;SDS011;25303;48.896;13.342;2024-03-02T16:16:54;8.82;;;4.72;;
39612;SDS011;25303;48.896;13.342;2024-03-02T16:26:57;7.05;;;4.00;;
39612;SDS011;25303;48.896;13.342;2024-03-02T16:37:02;8.43;;;5.05;;
39612;SDS011;25303;48.896;13.342;2024-03-02T16:47:05;9.80;;;5.20;;
39612;SDS011;25303;48.896;13.342;2024-03-02T16:57:11;9.40;;;4.97;;
39612;SDS011;25303;48.896;13.342;2024-03-02T17:07:14;11.40;;;6.10;;
39612;SDS011;25303;48.896;13.342;2024-03-02T17:17:18;10.70;;;4.85;;
39612;SDS011;25303;48.896;13.342;2024-03-02T17:27:21;9.63;;;5.22;;
39612;SDS011;25303;48.896;13.342;2024-03-02T17:37:26;14.75;;;6.00;;
39612;SDS011;25303;48.896;13.342;2024-03-02T17:47:29;12.10;;;6.45;;
39612;SDS011;25303;48.896;13.342;2024-03-02T17:57:33;12.25;;;6.85;;
39612;SDS011;25303;48.896;13.342;2024-03-02T18:07:37;14.98;;;7.70;;
39612;SDS011;25303;48.896;13.342;2024-03-02T18:17:41;14.52;;;7.55;;
39612;SDS011;25303;48.896;13.342;2024-03-02T18:27:44;12.27;;;6.38;;
39612;SDS011;25303;48.896;13.342;2024-03-02T18:37:49;14.80;;;6.88;;
39612;SDS011;25303;48.896;13.342;2024-03-02T18:47:52;13.27;;;6.03;;
39612;SDS011;25303;48.896;13.342;2024-03-02T18:57:57;11.35;;;5.90;;
39612;SDS011;25303;48.896;13.342;2024-03-02T19:08:00;13.18;;;6.60;;
39612;SDS011;25303;48.896;13.342;2024-03-02T19:18:04;12.27;;;6.00;;
39612;SDS011;25303;48.896;13.342;2024-03-02T19:28:08;10.75;;;5.75;;
39612;SDS011;25303;48.896;13.342;2024-03-02T19:38:12;12.88;;;6.22;;
39612;SDS011;25303;48.896;13.342;2024-03-02T19:48:16;10.90;;;5.22;;
39612;SDS011;25303;48.896;13.342;2024-03-02T19:58:21;9.65;;;4.70;;
39612;SDS011;25303;48.896;13.342;2024-03-02T20:08:24;9.40;;;4.68;;
39612;SDS011;25303;48.896;13.342;2024-03-02T20:18:29;7.00;;;3.88;;
39612;SDS011;25303;48.896;13.342;2024-03-02T20:28:32;10.00;;;4.78;;
39612;SDS011;25303;48.896;13.342;2024-03-02T20:38:36;9.88;;;4.40;;
39612;SDS011;25303;48.896;13.342;2024-03-02T20:48:40;8.80;;;4.25;;
39612;SDS011;25303;48.896;13.342;2024-03-02T20:58:45;8.52;;;3.85;;
39612;SDS011;25303;48.896;13.342;2024-03-02T21:08:48;9.10;;;4.18;;
39612;SDS011;25303;48.896;13.342;2024-03-02T21:18:53;8.65;;;4.20;;
39612;SDS011;25303;48.896;13.342;2024-03-02T21:28:56;9.23;;;4.93;;
39612;SDS011;25303;48.896;13.342;2024-03-02T21:39:01;10.13;;;5.07;;
39612;SDS011;25303;48.896;13.342;2024-03-02T21:49:06;9.60;;;5.20;;
39612;SDS011;25303;48.896;13.342;2024-03-02T21:59:10;9.18;;;4.45;;
39612;SDS011;25303;48.896;13.342;2024-03-02T22:09:14;9.70;;;4.82;;
39612;SDS011;25303;48.896;13.342;2024-03-02T22:19:18;8.68;;;4.13;;
39612;SDS011;25303;48.896;13.342;2024-03-02T22:29:21;8.07;;;4.20;;
39612;SDS011;25303;48.896;13.342;2024-03-02T22:39:25;8.35;;;3.70;;
39612;SDS011;25303;48.896;13.342;2024-03-02T22:49:28;8.23;;;4.13;;
39612;SDS011;25303;48.896;13.342;2024-03-02T22:59:33;7.93;;;3.63;;
39612;SDS011;25303;48.896;13.342;2024-03-02T23:09:36;8.52;;;4.25;;
39612;SDS011;25303;48.896;13.342;2024-03-02T23:19:41;8.40;;;4.22;;
39612;SDS011;25303;48.896;13.342;2024-03-02T23:29:44;7.03;;;3.55;;
39612;SDS011;25303;48.896;13.342;2024-03-02T23:39:48;6.07;;;3.10;;
39612;SDS011;25303;48.896;13.342;2024-03-02T23:50:19;6.07;;;3.00;;
